Wilkinsville, Tennessee
Current Conditions -  °F | °C
As of 6:50 PM on Sunday 19 Oct 2014 (Local Time) from KNQA Reporting Station
Scattered Clouds Scattered Clouds  
Wind Chill: 57°   Ceiling: Unl
Heat Index: 57°   Visibility: 10mi
Dew Point: 50°   Wind: 0mph
Humidity: 77%   Direction: NA
Pressure: 30.11"   Gusts: NA
Location:  35.3343°N, 89.9316°W
Report Text: KNQA 192350Z 00000KT 10SM FEW150 SCT250 14/10 A3011
Loading
Personal Weather Stations






























Interactive Weather Map
Tropical Storm Tracking
New forecast layout! Learn more

10-Day Weather Forecast

Advertisements
Track Severe Weather on mobile